Time;durP1;ratioP1;P1;durP2;ratioP2;P2;SDS_P1;SDS_P2;PMS_P1;PMS_P2;Temp;Humidity;BMP_temperature;BMP_pressure;BME280_temperature;BME280_humidity;BME280_pressure;Samples;Min_cycle;Max_cycle;Signal;HPM_P1;HPM_P2
2022/12/16 00:04:56;;;;;;;10.90;5.75;;;;;;;0.92;100.00;97388.06;10210516;28;20069;-55
2022/12/16 00:09:55;;;;;;;6.15;5.57;;;;;;;0.98;100.00;97394.25;10208194;28;20027;-55
2022/12/16 00:14:54;;;;;;;8.15;7.32;;;;;;;0.88;100.00;97398.19;10209740;28;20146;-55
2022/12/16 00:19:53;;;;;;;6.97;6.32;;;;;;;0.86;100.00;97389.63;10180972;28;20663;-55
2022/12/16 00:24:52;;;;;;;8.63;7.90;;;;;;;0.81;100.00;97398.84;10205640;28;20523;-55
2022/12/16 00:29:51;;;;;;;8.77;7.93;;;;;;;0.80;100.00;97368.13;10206377;28;20118;-55
2022/12/16 00:34:50;;;;;;;11.52;7.68;;;;;;;0.72;100.00;97374.69;10204571;28;20031;-55
2022/12/16 00:39:49;;;;;;;11.30;8.57;;;;;;;0.70;100.00;97356.75;10213381;28;20118;-55
2022/12/16 00:44:48;;;;;;;9.80;8.90;;;;;;;0.69;100.00;97370.38;10240407;28;20069;-55
2022/12/16 00:49:47;;;;;;;4.93;4.53;;;;;;;0.73;100.00;97356.84;10207425;28;20031;-55
2022/12/16 00:54:46;;;;;;;8.45;7.43;;;;;;;0.79;100.00;97344.28;10208014;28;20104;-55
2022/12/16 00:59:45;;;;;;;5.95;5.43;;;;;;;0.78;100.00;97360.44;10212753;28;20138;-55
2022/12/16 01:04:44;;;;;;;8.35;7.70;;;;;;;0.78;100.00;97326.34;10202539;28;20047;-55
2022/12/16 01:09:43;;;;;;;9.55;6.25;;;;;;;0.78;100.00;97340.00;10185703;28;20110;-55
2022/12/16 01:14:42;;;;;;;10.98;8.85;;;;;;;0.83;100.00;97318.03;10212338;28;20066;-56
2022/12/16 01:19:41;;;;;;;6.25;5.80;;;;;;;0.76;100.00;97317.81;10202881;28;20149;-55
2022/12/16 01:24:40;;;;;;;7.22;6.47;;;;;;;0.79;100.00;97308.53;10209367;28;20619;-55
2022/12/16 01:29:39;;;;;;;7.65;6.95;;;;;;;0.85;100.00;97295.94;10221326;28;20058;-56
2022/12/16 01:34:38;;;;;;;5.22;4.72;;;;;;;0.99;100.00;97303.13;10235795;28;20117;-56
2022/12/16 01:39:37;;;;;;;4.68;4.28;;;;;;;1.09;100.00;97288.13;10211875;28;20912;-56
2022/12/16 01:44:36;;;;;;;;;;;;;;;1.20;100.00;97308.00;10213686;28;20058;-56
2022/12/16 01:49:40;;;;;;;6.63;3.58;;;;;;;1.14;100.00;97298.47;10205351;28;19989;-56
2022/12/16 01:54:44;;;;;;;6.18;4.85;;;;;;;1.22;100.00;97288.47;10211274;28;20062;-56
2022/12/16 01:59:49;;;;;;;7.60;5.65;;;;;;;1.21;100.00;97285.03;10211926;28;20089;-56
2022/12/16 02:10:07;;;;;;;10.80;3.75;;;;;;;1.47;100.00;97288.31;10210452;28;20150;-56
2022/12/16 02:15:25;;;;;;;9.57;5.18;;;;;;;1.56;100.00;97277.47;10211166;28;20070;-56
2022/12/16 02:21:16;;;;;;;6.13;4.72;;;;;;;1.49;100.00;97258.53;10219868;28;20065;-56
2022/12/16 02:26:40;;;;;;;4.35;4.00;;;;;;;1.62;100.00;97266.53;10214949;28;20070;-56
2022/12/16 02:32:01;;;;;;;5.20;4.70;;;;;;;1.71;100.00;97261.66;10213309;28;20066;-56
2022/12/16 02:37:37;;;;;;;8.65;2.75;;;;;;;1.77;100.00;97251.59;10224724;28;20062;-56
2022/12/16 02:42:57;;;;;;;2.30;2.10;;;;;;;1.92;100.00;97243.41;10209173;28;20081;-57
2022/12/16 02:47:56;;;;;;;4.72;3.85;;;;;;;2.01;100.00;97243.63;10209365;28;20054;-56
2022/12/16 02:52:57;;;;;;;4.85;3.15;;;;;;;2.15;100.00;97262.75;10207785;28;20097;-55
2022/12/16 02:58:13;;;;;;;2.05;1.90;;;;;;;2.36;100.00;97266.66;10201378;28;20077;-56
2022/12/16 03:03:36;;;;;;;6.97;4.38;;;;;;;2.40;100.00;97276.16;10206931;28;20102;-56
2022/12/16 03:08:40;;;;;;;40.45;27.25;;;;;;;2.47;100.00;97282.28;10206738;28;20073;-56
2022/12/16 03:13:45;;;;;;;18.27;10.02;;;;;;;2.64;100.00;97319.38;10208721;28;20093;-56
2022/12/16 03:18:47;;;;;;;10.43;3.00;;;;;;;2.44;100.00;97313.81;10209353;28;20108;-55
2022/12/16 03:23:51;;;;;;;7.45;5.57;;;;;;;2.44;100.00;97318.94;10217806;28;20081;-56
2022/12/16 03:29:04;;;;;;;9.30;7.32;;;;;;;2.41;100.00;97313.72;10210522;28;20093;-56
2022/12/16 03:34:31;;;;;;;3.65;2.95;;;;;;;2.51;100.00;97305.44;10213811;28;20818;-55
2022/12/16 03:39:33;;;;;;;6.40;3.22;;;;;;;2.71;100.00;97294.78;10205515;28;20074;-56
2022/12/16 03:44:34;;;;;;;3.95;3.65;;;;;;;2.78;100.00;97289.81;10215581;28;20108;-56
2022/12/16 03:49:33;;;;;;;5.50;5.07;;;;;;;2.89;100.00;97287.50;10214595;28;20070;-58
2022/12/16 03:54:32;;;;;;;5.28;4.88;;;;;;;2.88;100.00;97296.00;10211182;28;20117;-56
2022/12/16 03:59:31;;;;;;;6.28;5.32;;;;;;;2.77;100.00;97302.59;10212105;28;20031;-56
2022/12/16 04:04:30;;;;;;;5.70;3.95;;;;;;;2.64;100.00;97321.09;10215302;28;20061;-56
2022/12/16 04:09:29;;;;;;;8.82;6.20;;;;;;;2.62;100.00;97322.75;10214469;28;20030;-56
2022/12/16 04:25:10;;;;;;;7.32;3.83;;;;;;;2.60;100.00;97330.38;10216294;28;20066;-56
2022/12/16 04:30:19;;;;;;;3.50;2.13;;;;;;;2.69;100.00;97310.09;10177900;28;20077;-56
